sensor_id;sensor_type;location;lat;lon;timestamp;P1;durP1;ratioP1;P2;durP2;ratioP2
50858;SDS011;36826;47.514;19.056;2022-08-04T00:01:30;3.33;;;1.70;;
50858;SDS011;36826;47.514;19.056;2022-08-04T00:04:02;1.95;;;1.73;;
50858;SDS011;36826;47.514;19.056;2022-08-04T00:09:32;2.58;;;1.40;;
50858;SDS011;36826;47.514;19.056;2022-08-04T00:14:35;4.18;;;1.10;;
50858;SDS011;36826;47.514;19.056;2022-08-04T00:17:06;1.85;;;1.42;;
50858;SDS011;36826;47.514;19.056;2022-08-04T00:19:35;1.67;;;1.20;;
50858;SDS011;36826;47.514;19.056;2022-08-04T00:22:07;4.38;;;1.48;;
50858;SDS011;36826;47.514;19.056;2022-08-04T00:24:34;2.47;;;1.10;;
50858;SDS011;36826;47.514;19.056;2022-08-04T00:27:01;3.97;;;1.30;;
50858;SDS011;36826;47.514;19.056;2022-08-04T00:29:26;1.98;;;1.00;;
50858;SDS011;36826;47.514;19.056;2022-08-04T00:31:53;2.90;;;1.20;;
50858;SDS011;36826;47.514;19.056;2022-08-04T00:34:20;1.30;;;1.15;;
50858;SDS011;36826;47.514;19.056;2022-08-04T00:36:48;1.58;;;1.20;;
50858;SDS011;36826;47.514;19.056;2022-08-04T00:39:14;4.38;;;1.40;;
50858;SDS011;36826;47.514;19.056;2022-08-04T00:46:51;3.03;;;1.13;;
50858;SDS011;36826;47.514;19.056;2022-08-04T00:55:13;4.43;;;1.50;;
50858;SDS011;36826;47.514;19.056;2022-08-04T00:57:53;1.67;;;1.20;;
50858;SDS011;36826;47.514;19.056;2022-08-04T01:00:20;2.03;;;1.17;;
50858;SDS011;36826;47.514;19.056;2022-08-04T01:11:02;2.80;;;1.40;;
50858;SDS011;36826;47.514;19.056;2022-08-04T01:16:31;1.80;;;1.33;;
50858;SDS011;36826;47.514;19.056;2022-08-04T01:29:19;2.45;;;1.50;;
50858;SDS011;36826;47.514;19.056;2022-08-04T01:34:35;2.90;;;1.60;;
50858;SDS011;36826;47.514;19.056;2022-08-04T01:39:49;3.03;;;1.90;;
50858;SDS011;36826;47.514;19.056;2022-08-04T01:42:24;1.92;;;1.50;;
50858;SDS011;36826;47.514;19.056;2022-08-04T01:44:50;2.72;;;1.65;;
50858;SDS011;36826;47.514;19.056;2022-08-04T01:47:19;2.05;;;1.55;;
50858;SDS011;36826;47.514;19.056;2022-08-04T01:49:48;3.03;;;1.40;;
50858;SDS011;36826;47.514;19.056;2022-08-04T01:54:41;2.28;;;1.75;;
50858;SDS011;36826;47.514;19.056;2022-08-04T01:57:07;3.30;;;1.58;;
50858;SDS011;36826;47.514;19.056;2022-08-04T01:59:34;2.00;;;1.70;;
50858;SDS011;36826;47.514;19.056;2022-08-04T02:02:01;2.00;;;1.80;;
50858;SDS011;36826;47.514;19.056;2022-08-04T02:04:27;2.33;;;1.90;;
50858;SDS011;36826;47.514;19.056;2022-08-04T02:15:57;3.58;;;1.70;;
50858;SDS011;36826;47.514;19.056;2022-08-04T02:18:30;2.65;;;1.77;;
50858;SDS011;36826;47.514;19.056;2022-08-04T02:21:18;3.13;;;1.80;;
50858;SDS011;36826;47.514;19.056;2022-08-04T02:23:45;2.53;;;1.80;;
50858;SDS011;36826;47.514;19.056;2022-08-04T02:26:16;2.08;;;1.77;;
50858;SDS011;36826;47.514;19.056;2022-08-04T02:28:47;3.05;;;1.60;;
50858;SDS011;36826;47.514;19.056;2022-08-04T02:31:42;4.75;;;1.77;;
50858;SDS011;36826;47.514;19.056;2022-08-04T02:34:31;5.97;;;2.00;;
50858;SDS011;36826;47.514;19.056;2022-08-04T02:37:06;3.90;;;1.70;;
50858;SDS011;36826;47.514;19.056;2022-08-04T02:39:34;4.72;;;1.70;;
50858;SDS011;36826;47.514;19.056;2022-08-04T02:42:01;3.85;;;1.70;;
50858;SDS011;36826;47.514;19.056;2022-08-04T02:44:28;2.90;;;1.50;;
50858;SDS011;36826;47.514;19.056;2022-08-04T02:46:55;2.30;;;1.77;;
50858;SDS011;36826;47.514;19.056;2022-08-04T02:49:22;1.60;;;1.50;;
50858;SDS011;36826;47.514;19.056;2022-08-04T02:51:51;2.95;;;1.55;;
50858;SDS011;36826;47.514;19.056;2022-08-04T02:54:19;4.18;;;1.70;;
50858;SDS011;36826;47.514;19.056;2022-08-04T02:56:50;2.42;;;1.83;;
50858;SDS011;36826;47.514;19.056;2022-08-04T02:59:17;3.33;;;1.60;;
50858;SDS011;36826;47.514;19.056;2022-08-04T03:01:47;2.75;;;1.48;;
50858;SDS011;36826;47.514;19.056;2022-08-04T03:23:23;2.35;;;1.67;;
50858;SDS011;36826;47.514;19.056;2022-08-04T03:26:30;3.42;;;1.73;;
50858;SDS011;36826;47.514;19.056;2022-08-04T03:48:41;1.73;;;1.50;;
50858;SDS011;36826;47.514;19.056;2022-08-04T03:51:11;2.20;;;1.60;;
50858;SDS011;36826;47.514;19.056;2022-08-04T04:05:20;3.67;;;1.60;;
50858;SDS011;36826;47.514;19.056;2022-08-04T04:08:09;3.38;;;1.40;;
50858;SDS011;36826;47.514;19.056;2022-08-04T04:10:51;2.45;;;1.48;;
50858;SDS011;36826;47.514;19.056;2022-08-04T04:16:20;2.72;;;1.50;;
50858;SDS011;36826;47.514;19.056;2022-08-04T04:18:57;1.83;;;1.25;;
50858;SDS011;36826;47.514;19.056;2022-08-04T04:30:04;2.40;;;1.35;;
50858;SDS011;36826;47.514;19.056;2022-08-04T04:32:42;2.60;;;1.20;;
50858;SDS011;36826;47.514;19.056;2022-08-04T04:40:27;2.55;;;1.10;;
50858;SDS011;36826;47.514;19.056;2022-08-04T04:48:14;5.75;;;1.55;;
50858;SDS011;36826;47.514;19.056;2022-08-04T04:57:02;2.70;;;1.33;;
50858;SDS011;36826;47.514;19.056;2022-08-04T05:00:25;2.45;;;1.20;;
50858;SDS011;36826;47.514;19.056;2022-08-04T05:02:39;1.90;;;1.10;;
50858;SDS011;36826;47.514;19.056;2022-08-04T05:11:03;2.20;;;1.15;;
50858;SDS011;36826;47.514;19.056;2022-08-04T05:13:46;3.03;;;1.30;;
50858;SDS011;36826;47.514;19.056;2022-08-04T05:16:18;3.15;;;1.23;;
50858;SDS011;36826;47.514;19.056;2022-08-04T05:18:51;5.45;;;1.40;;
50858;SDS011;36826;47.514;19.056;2022-08-04T05:21:36;5.13;;;1.30;;
50858;SDS011;36826;47.514;19.056;2022-08-04T05:24:11;4.72;;;1.33;;
50858;SDS011;36826;47.514;19.056;2022-08-04T05:26:45;3.15;;;1.00;;
50858;SDS011;36826;47.514;19.056;2022-08-04T05:29:21;3.22;;;1.15;;
50858;SDS011;36826;47.514;19.056;2022-08-04T05:31:52;4.63;;;1.17;;
50858;SDS011;36826;47.514;19.056;2022-08-04T05:34:20;4.07;;;1.10;;
50858;SDS011;36826;47.514;19.056;2022-08-04T05:36:50;7.70;;;1.20;;
50858;SDS011;36826;47.514;19.056;2022-08-04T05:39:27;4.47;;;1.20;;
50858;SDS011;36826;47.514;19.056;2022-08-04T05:41:56;6.70;;;1.10;;
50858;SDS011;36826;47.514;19.056;2022-08-04T05:44:23;5.30;;;1.10;;
50858;SDS011;36826;47.514;19.056;2022-08-04T05:46:51;5.30;;;1.48;;
50858;SDS011;36826;47.514;19.056;2022-08-04T05:49:23;11.10;;;1.33;;
50858;SDS011;36826;47.514;19.056;2022-08-04T05:51:51;7.97;;;1.23;;
50858;SDS011;36826;47.514;19.056;2022-08-04T05:54:20;4.10;;;1.00;;
50858;SDS011;36826;47.514;19.056;2022-08-04T05:59:13;1.55;;;0.95;;
50858;SDS011;36826;47.514;19.056;2022-08-04T06:01:39;14.52;;;1.60;;
50858;SDS011;36826;47.514;19.056;2022-08-04T06:04:06;5.47;;;1.20;;
50858;SDS011;36826;47.514;19.056;2022-08-04T06:06:33;7.65;;;1.30;;
50858;SDS011;36826;47.514;19.056;2022-08-04T06:09:01;8.30;;;1.40;;
50858;SDS011;36826;47.514;19.056;2022-08-04T06:11:26;4.10;;;1.20;;
50858;SDS011;36826;47.514;19.056;2022-08-04T06:13:54;5.57;;;0.90;;
50858;SDS011;36826;47.514;19.056;2022-08-04T06:16:23;3.67;;;1.10;;
50858;SDS011;36826;47.514;19.056;2022-08-04T06:18:52;3.17;;;0.80;;
50858;SDS011;36826;47.514;19.056;2022-08-04T06:21:21;2.05;;;1.10;;
50858;SDS011;36826;47.514;19.056;2022-08-04T06:23:51;4.45;;;1.10;;
50858;SDS011;36826;47.514;19.056;2022-08-04T06:26:19;1.90;;;1.23;;
50858;SDS011;36826;47.514;19.056;2022-08-04T06:28:46;5.95;;;1.35;;
50858;SDS011;36826;47.514;19.056;2022-08-04T06:31:18;3.83;;;1.10;;
50858;SDS011;36826;47.514;19.056;2022-08-04T06:34:07;5.78;;;1.20;;
50858;SDS011;36826;47.514;19.056;2022-08-04T06:36:36;1.95;;;0.75;;
50858;SDS011;36826;47.514;19.056;2022-08-04T06:39:05;6.88;;;0.90;;
50858;SDS011;36826;47.514;19.056;2022-08-04T06:41:32;3.42;;;0.77;;
50858;SDS011;36826;47.514;19.056;2022-08-04T06:46:26;3.83;;;0.90;;
50858;SDS011;36826;47.514;19.056;2022-08-04T06:48:53;4.65;;;0.80;;
50858;SDS011;36826;47.514;19.056;2022-08-04T06:51:20;3.67;;;0.90;;
50858;SDS011;36826;47.514;19.056;2022-08-04T06:53:47;2.80;;;0.75;;
50858;SDS011;36826;47.514;19.056;2022-08-04T06:56:13;1.70;;;0.50;;
50858;SDS011;36826;47.514;19.056;2022-08-04T06:58:40;1.45;;;0.57;;
50858;SDS011;36826;47.514;19.056;2022-08-04T07:01:08;3.80;;;0.95;;
50858;SDS011;36826;47.514;19.056;2022-08-04T07:03:35;3.13;;;0.75;;
50858;SDS011;36826;47.514;19.056;2022-08-04T07:06:00;3.73;;;0.90;;
50858;SDS011;36826;47.514;19.056;2022-08-04T07:10:52;4.32;;;0.90;;
50858;SDS011;36826;47.514;19.056;2022-08-04T07:13:19;5.88;;;0.50;;
50858;SDS011;36826;47.514;19.056;2022-08-04T07:15:46;1.67;;;0.60;;
50858;SDS011;36826;47.514;19.056;2022-08-04T07:18:12;2.88;;;0.75;;
50858;SDS011;36826;47.514;19.056;2022-08-04T07:20:44;3.03;;;0.52;;
50858;SDS011;36826;47.514;19.056;2022-08-04T07:23:11;1.70;;;0.60;;
50858;SDS011;36826;47.514;19.056;2022-08-04T07:25:41;4.13;;;0.80;;
50858;SDS011;36826;47.514;19.056;2022-08-04T07:28:07;2.05;;;0.80;;
50858;SDS011;36826;47.514;19.056;2022-08-04T07:30:33;4.72;;;0.63;;
50858;SDS011;36826;47.514;19.056;2022-08-04T07:33:02;4.50;;;0.73;;
50858;SDS011;36826;47.514;19.056;2022-08-04T07:35:29;3.50;;;0.80;;
50858;SDS011;36826;47.514;19.056;2022-08-04T07:37:55;1.70;;;0.70;;
50858;SDS011;36826;47.514;19.056;2022-08-04T07:40:22;3.42;;;0.60;;
50858;SDS011;36826;47.514;19.056;2022-08-04T07:42:47;3.28;;;0.60;;
50858;SDS011;36826;47.514;19.056;2022-08-04T07:45:16;3.83;;;0.75;;
50858;SDS011;36826;47.514;19.056;2022-08-04T07:47:44;3.70;;;0.70;;
50858;SDS011;36826;47.514;19.056;2022-08-04T07:50:10;5.20;;;0.97;;
50858;SDS011;36826;47.514;19.056;2022-08-04T07:52:36;1.45;;;0.60;;
50858;SDS011;36826;47.514;19.056;2022-08-04T07:55:03;2.15;;;0.80;;
50858;SDS011;36826;47.514;19.056;2022-08-04T07:57:29;1.50;;;0.60;;
50858;SDS011;36826;47.514;19.056;2022-08-04T07:59:55;3.97;;;0.80;;
50858;SDS011;36826;47.514;19.056;2022-08-04T08:07:12;1.88;;;0.77;;
50858;SDS011;36826;47.514;19.056;2022-08-04T08:12:03;1.67;;;0.52;;
50858;SDS011;36826;47.514;19.056;2022-08-04T08:14:31;3.15;;;0.60;;
50858;SDS011;36826;47.514;19.056;2022-08-04T08:16:59;1.10;;;0.60;;
50858;SDS011;36826;47.514;19.056;2022-08-04T08:19:26;3.55;;;0.80;;
50858;SDS011;36826;47.514;19.056;2022-08-04T08:21:52;1.05;;;0.57;;
50858;SDS011;36826;47.514;19.056;2022-08-04T08:24:17;1.40;;;0.60;;
50858;SDS011;36826;47.514;19.056;2022-08-04T08:26:43;4.30;;;0.63;;
50858;SDS011;36826;47.514;19.056;2022-08-04T08:29:09;7.38;;;1.23;;
50858;SDS011;36826;47.514;19.056;2022-08-04T08:31:34;1.17;;;0.63;;
50858;SDS011;36826;47.514;19.056;2022-08-04T08:34:00;3.30;;;0.93;;
50858;SDS011;36826;47.514;19.056;2022-08-04T08:39:13;4.07;;;0.93;;
50858;SDS011;36826;47.514;19.056;2022-08-04T08:47:32;2.72;;;0.90;;
50858;SDS011;36826;47.514;19.056;2022-08-04T08:50:29;1.90;;;0.80;;
50858;SDS011;36826;47.514;19.056;2022-08-04T09:09:54;2.67;;;0.80;;
50858;SDS011;36826;47.514;19.056;2022-08-04T09:26:47;1.88;;;0.80;;
50858;SDS011;36826;47.514;19.056;2022-08-04T09:29:25;3.10;;;0.93;;
50858;SDS011;36826;47.514;19.056;2022-08-04T09:32:20;2.92;;;0.85;;
50858;SDS011;36826;47.514;19.056;2022-08-04T09:34:54;2.97;;;0.90;;
50858;SDS011;36826;47.514;19.056;2022-08-04T09:37:41;4.13;;;1.30;;
50858;SDS011;36826;47.514;19.056;2022-08-04T09:42:49;2.80;;;1.10;;
50858;SDS011;36826;47.514;19.056;2022-08-04T09:45:28;4.60;;;1.08;;
50858;SDS011;36826;47.514;19.056;2022-08-04T09:48:07;4.40;;;1.20;;
50858;SDS011;36826;47.514;19.056;2022-08-04T09:50:39;2.72;;;1.00;;
50858;SDS011;36826;47.514;19.056;2022-08-04T09:55:54;2.28;;;1.00;;
50858;SDS011;36826;47.514;19.056;2022-08-04T10:01:13;2.30;;;0.77;;
50858;SDS011;36826;47.514;19.056;2022-08-04T10:03:42;2.40;;;1.00;;
50858;SDS011;36826;47.514;19.056;2022-08-04T10:14:51;1.60;;;0.63;;
50858;SDS011;36826;47.514;19.056;2022-08-04T10:17:36;1.85;;;0.90;;
50858;SDS011;36826;47.514;19.056;2022-08-04T10:26:19;2.00;;;0.75;;
50858;SDS011;36826;47.514;19.056;2022-08-04T10:29:36;4.07;;;0.70;;
50858;SDS011;36826;47.514;19.056;2022-08-04T10:32:28;2.28;;;0.98;;
50858;SDS011;36826;47.514;19.056;2022-08-04T10:40:19;1.80;;;0.63;;
50858;SDS011;36826;47.514;19.056;2022-08-04T10:54:07;2.00;;;0.90;;
50858;SDS011;36826;47.514;19.056;2022-08-04T10:56:53;2.45;;;1.08;;
50858;SDS011;36826;47.514;19.056;2022-08-04T11:01:53;3.53;;;1.08;;
50858;SDS011;36826;47.514;19.056;2022-08-04T11:04:30;3.10;;;0.95;;
50858;SDS011;36826;47.514;19.056;2022-08-04T11:07:06;1.52;;;0.90;;
50858;SDS011;36826;47.514;19.056;2022-08-04T11:09:32;2.08;;;0.90;;
50858;SDS011;36826;47.514;19.056;2022-08-04T11:15:15;2.63;;;1.08;;
50858;SDS011;36826;47.514;19.056;2022-08-04T11:17:28;1.50;;;1.05;;
50858;SDS011;36826;47.514;19.056;2022-08-04T11:22:51;5.28;;;1.65;;
50858;SDS011;36826;47.514;19.056;2022-08-04T11:25:27;3.65;;;1.00;;
50858;SDS011;36826;47.514;19.056;2022-08-04T11:28:03;4.10;;;1.20;;
50858;SDS011;36826;47.514;19.056;2022-08-04T11:30:50;3.45;;;1.40;;
50858;SDS011;36826;47.514;19.056;2022-08-04T11:33:26;2.65;;;0.93;;
50858;SDS011;36826;47.514;19.056;2022-08-04T11:36:14;2.45;;;1.00;;
50858;SDS011;36826;47.514;19.056;2022-08-04T11:38:48;1.42;;;1.00;;
50858;SDS011;36826;47.514;19.056;2022-08-04T11:41:36;1.80;;;1.00;;
50858;SDS011;36826;47.514;19.056;2022-08-04T11:44:15;2.28;;;1.15;;
50858;SDS011;36826;47.514;19.056;2022-08-04T11:46:49;3.50;;;1.45;;
50858;SDS011;36826;47.514;19.056;2022-08-04T11:52:05;3.03;;;1.08;;
50858;SDS011;36826;47.514;19.056;2022-08-04T11:54:34;2.47;;;1.20;;
50858;SDS011;36826;47.514;19.056;2022-08-04T11:57:02;2.17;;;1.20;;
50858;SDS011;36826;47.514;19.056;2022-08-04T11:59:29;4.07;;;1.35;;
50858;SDS011;36826;47.514;19.056;2022-08-04T12:04:58;2.10;;;1.20;;
50858;SDS011;36826;47.514;19.056;2022-08-04T12:07:48;4.40;;;1.35;;
50858;SDS011;36826;47.514;19.056;2022-08-04T12:16:15;2.10;;;1.23;;
50858;SDS011;36826;47.514;19.056;2022-08-04T12:18:59;2.20;;;1.70;;
50858;SDS011;36826;47.514;19.056;2022-08-04T12:24:14;3.28;;;1.15;;
50858;SDS011;36826;47.514;19.056;2022-08-04T12:26:43;1.58;;;1.27;;
50858;SDS011;36826;47.514;19.056;2022-08-04T12:29:22;2.78;;;1.20;;
50858;SDS011;36826;47.514;19.056;2022-08-04T12:31:57;5.18;;;1.30;;
50858;SDS011;36826;47.514;19.056;2022-08-04T12:34:31;1.60;;;1.27;;
50858;SDS011;36826;47.514;19.056;2022-08-04T12:39:41;2.83;;;1.20;;
50858;SDS011;36826;47.514;19.056;2022-08-04T12:45:12;3.50;;;1.20;;
50858;SDS011;36826;47.514;19.056;2022-08-04T12:47:39;3.80;;;1.35;;
50858;SDS011;36826;47.514;19.056;2022-08-04T12:50:06;4.20;;;1.30;;
50858;SDS011;36826;47.514;19.056;2022-08-04T12:52:40;2.08;;;1.20;;
50858;SDS011;36826;47.514;19.056;2022-08-04T12:55:07;4.53;;;1.30;;
50858;SDS011;36826;47.514;19.056;2022-08-04T12:57:34;3.28;;;1.40;;
50858;SDS011;36826;47.514;19.056;2022-08-04T13:00:01;6.57;;;1.63;;
50858;SDS011;36826;47.514;19.056;2022-08-04T13:02:28;5.25;;;1.35;;
50858;SDS011;36826;47.514;19.056;2022-08-04T13:04:57;6.22;;;1.52;;
50858;SDS011;36826;47.514;19.056;2022-08-04T13:07:26;1.95;;;1.20;;
50858;SDS011;36826;47.514;19.056;2022-08-04T13:10:00;4.22;;;1.40;;
50858;SDS011;36826;47.514;19.056;2022-08-04T13:12:35;4.57;;;1.40;;
50858;SDS011;36826;47.514;19.056;2022-08-04T13:15:07;2.42;;;1.23;;
50858;SDS011;36826;47.514;19.056;2022-08-04T13:17:49;4.72;;;1.33;;
50858;SDS011;36826;47.514;19.056;2022-08-04T13:22:58;3.25;;;1.50;;
50858;SDS011;36826;47.514;19.056;2022-08-04T13:25:48;5.63;;;1.40;;
50858;SDS011;36826;47.514;19.056;2022-08-04T13:28:19;2.58;;;1.20;;
50858;SDS011;36826;47.514;19.056;2022-08-04T13:30:52;4.20;;;1.30;;
50858;SDS011;36826;47.514;19.056;2022-08-04T13:33:20;3.53;;;1.25;;
50858;SDS011;36826;47.514;19.056;2022-08-04T13:35:47;1.75;;;1.20;;
50858;SDS011;36826;47.514;19.056;2022-08-04T13:38:14;3.50;;;1.63;;
50858;SDS011;36826;47.514;19.056;2022-08-04T13:40:42;5.03;;;1.23;;
50858;SDS011;36826;47.514;19.056;2022-08-04T13:43:09;2.85;;;1.38;;
50858;SDS011;36826;47.514;19.056;2022-08-04T13:45:46;2.83;;;1.30;;
50858;SDS011;36826;47.514;19.056;2022-08-04T13:48:14;5.00;;;1.42;;
50858;SDS011;36826;47.514;19.056;2022-08-04T13:50:43;4.80;;;1.35;;
50858;SDS011;36826;47.514;19.056;2022-08-04T13:53:10;1.55;;;1.15;;
50858;SDS011;36826;47.514;19.056;2022-08-04T13:55:36;2.03;;;1.10;;
50858;SDS011;36826;47.514;19.056;2022-08-04T13:58:04;2.10;;;1.30;;
50858;SDS011;36826;47.514;19.056;2022-08-04T14:00:38;1.83;;;1.05;;
50858;SDS011;36826;47.514;19.056;2022-08-04T14:03:37;3.00;;;1.25;;
50858;SDS011;36826;47.514;19.056;2022-08-04T14:11:18;3.00;;;1.30;;
50858;SDS011;36826;47.514;19.056;2022-08-04T14:13:47;2.55;;;1.30;;
50858;SDS011;36826;47.514;19.056;2022-08-04T14:16:17;1.63;;;1.13;;
50858;SDS011;36826;47.514;19.056;2022-08-04T14:18:45;4.10;;;1.13;;
50858;SDS011;36826;47.514;19.056;2022-08-04T14:21:15;3.58;;;1.30;;
50858;SDS011;36826;47.514;19.056;2022-08-04T14:26:17;3.10;;;1.45;;
50858;SDS011;36826;47.514;19.056;2022-08-04T14:28:42;5.13;;;1.33;;
50858;SDS011;36826;47.514;19.056;2022-08-04T14:31:09;2.97;;;1.63;;
50858;SDS011;36826;47.514;19.056;2022-08-04T14:33:43;2.47;;;1.13;;
50858;SDS011;36826;47.514;19.056;2022-08-04T14:36:10;5.00;;;1.45;;
50858;SDS011;36826;47.514;19.056;2022-08-04T14:38:56;2.60;;;1.10;;
50858;SDS011;36826;47.514;19.056;2022-08-04T14:41:29;5.32;;;1.58;;
50858;SDS011;36826;47.514;19.056;2022-08-04T14:44:08;4.32;;;1.33;;
50858;SDS011;36826;47.514;19.056;2022-08-04T14:46:33;5.15;;;1.40;;
50858;SDS011;36826;47.514;19.056;2022-08-04T14:49:13;3.47;;;1.25;;
50858;SDS011;36826;47.514;19.056;2022-08-04T14:51:50;1.48;;;1.10;;
50858;SDS011;36826;47.514;19.056;2022-08-04T14:54:25;1.48;;;1.20;;
50858;SDS011;36826;47.514;19.056;2022-08-04T14:57:02;2.67;;;1.40;;
50858;SDS011;36826;47.514;19.056;2022-08-04T14:59:40;2.90;;;1.25;;
50858;SDS011;36826;47.514;19.056;2022-08-04T15:02:10;4.50;;;1.42;;
50858;SDS011;36826;47.514;19.056;2022-08-04T15:04:37;3.22;;;1.20;;
50858;SDS011;36826;47.514;19.056;2022-08-04T15:07:04;3.38;;;1.40;;
50858;SDS011;36826;47.514;19.056;2022-08-04T15:09:30;2.42;;;1.40;;
50858;SDS011;36826;47.514;19.056;2022-08-04T15:11:56;2.38;;;1.00;;
50858;SDS011;36826;47.514;19.056;2022-08-04T15:14:22;2.35;;;1.30;;
50858;SDS011;36826;47.514;19.056;2022-08-04T15:16:49;1.93;;;1.30;;
50858;SDS011;36826;47.514;19.056;2022-08-04T15:19:15;3.53;;;1.48;;
50858;SDS011;36826;47.514;19.056;2022-08-04T15:21:41;2.75;;;1.10;;
50858;SDS011;36826;47.514;19.056;2022-08-04T15:24:06;3.03;;;1.20;;
50858;SDS011;36826;47.514;19.056;2022-08-04T15:26:40;2.65;;;1.25;;
50858;SDS011;36826;47.514;19.056;2022-08-04T15:29:11;2.50;;;1.42;;
50858;SDS011;36826;47.514;19.056;2022-08-04T15:31:43;2.13;;;1.10;;
50858;SDS011;36826;47.514;19.056;2022-08-04T15:34:11;4.20;;;1.30;;
50858;SDS011;36826;47.514;19.056;2022-08-04T15:36:54;3.28;;;1.40;;
50858;SDS011;36826;47.514;19.056;2022-08-04T15:42:07;4.63;;;1.58;;
50858;SDS011;36826;47.514;19.056;2022-08-04T15:47:20;2.17;;;1.30;;
50858;SDS011;36826;47.514;19.056;2022-08-04T15:50:00;1.42;;;1.13;;
50858;SDS011;36826;47.514;19.056;2022-08-04T16:05:57;2.20;;;1.27;;
50858;SDS011;36826;47.514;19.056;2022-08-04T16:08:23;3.42;;;1.63;;
50858;SDS011;36826;47.514;19.056;2022-08-04T16:10:51;3.67;;;1.50;;
50858;SDS011;36826;47.514;19.056;2022-08-04T16:13:19;2.42;;;1.52;;
50858;SDS011;36826;47.514;19.056;2022-08-04T16:15:52;3.10;;;1.48;;
50858;SDS011;36826;47.514;19.056;2022-08-04T16:21:05;3.57;;;1.37;;
50858;SDS011;36826;47.514;19.056;2022-08-04T16:26:41;4.63;;;1.50;;
50858;SDS011;36826;47.514;19.056;2022-08-04T16:34:34;2.17;;;1.23;;
50858;SDS011;36826;47.514;19.056;2022-08-04T16:37:10;2.47;;;1.13;;
50858;SDS011;36826;47.514;19.056;2022-08-04T16:39:37;3.22;;;1.35;;
50858;SDS011;36826;47.514;19.056;2022-08-04T16:44:57;3.63;;;1.50;;
50858;SDS011;36826;47.514;19.056;2022-08-04T16:52:43;1.98;;;1.30;;
50858;SDS011;36826;47.514;19.056;2022-08-04T16:55:11;3.60;;;1.30;;
50858;SDS011;36826;47.514;19.056;2022-08-04T16:57:39;2.97;;;1.17;;
50858;SDS011;36826;47.514;19.056;2022-08-04T17:00:05;3.88;;;1.50;;
50858;SDS011;36826;47.514;19.056;2022-08-04T17:02:32;2.20;;;1.30;;
50858;SDS011;36826;47.514;19.056;2022-08-04T17:04:58;2.90;;;1.40;;
50858;SDS011;36826;47.514;19.056;2022-08-04T17:07:23;3.22;;;1.20;;
50858;SDS011;36826;47.514;19.056;2022-08-04T17:09:49;3.55;;;1.70;;
50858;SDS011;36826;47.514;19.056;2022-08-04T17:12:16;2.97;;;1.47;;
50858;SDS011;36826;47.514;19.056;2022-08-04T17:14:41;1.80;;;1.20;;
50858;SDS011;36826;47.514;19.056;2022-08-04T17:17:07;2.63;;;1.30;;
50858;SDS011;36826;47.514;19.056;2022-08-04T17:19:32;4.65;;;1.38;;
50858;SDS011;36826;47.514;19.056;2022-08-04T17:22:06;7.10;;;1.60;;
50858;SDS011;36826;47.514;19.056;2022-08-04T17:24:36;4.57;;;1.63;;
50858;SDS011;36826;47.514;19.056;2022-08-04T17:27:04;4.25;;;1.38;;
50858;SDS011;36826;47.514;19.056;2022-08-04T17:29:30;1.83;;;1.35;;
50858;SDS011;36826;47.514;19.056;2022-08-04T17:31:58;3.60;;;1.60;;
50858;SDS011;36826;47.514;19.056;2022-08-04T17:34:24;3.78;;;1.42;;
50858;SDS011;36826;47.514;19.056;2022-08-04T17:36:50;4.85;;;1.50;;
50858;SDS011;36826;47.514;19.056;2022-08-04T17:39:19;2.60;;;1.23;;
50858;SDS011;36826;47.514;19.056;2022-08-04T17:41:47;2.50;;;1.33;;
50858;SDS011;36826;47.514;19.056;2022-08-04T17:44:19;3.95;;;1.90;;
50858;SDS011;36826;47.514;19.056;2022-08-04T17:46:45;4.28;;;1.63;;
50858;SDS011;36826;47.514;19.056;2022-08-04T17:51:48;6.15;;;2.67;;
50858;SDS011;36826;47.514;19.056;2022-08-04T17:54:29;3.17;;;1.60;;
50858;SDS011;36826;47.514;19.056;2022-08-04T17:56:57;2.10;;;1.70;;
50858;SDS011;36826;47.514;19.056;2022-08-04T18:04:29;5.40;;;1.63;;
50858;SDS011;36826;47.514;19.056;2022-08-04T18:07:07;3.75;;;1.63;;
50858;SDS011;36826;47.514;19.056;2022-08-04T18:09:35;4.38;;;1.63;;
50858;SDS011;36826;47.514;19.056;2022-08-04T18:12:10;7.07;;;1.90;;
50858;SDS011;36826;47.514;19.056;2022-08-04T18:17:07;5.20;;;1.48;;
50858;SDS011;36826;47.514;19.056;2022-08-04T18:19:33;5.82;;;1.63;;
50858;SDS011;36826;47.514;19.056;2022-08-04T18:22:00;3.67;;;1.77;;
50858;SDS011;36826;47.514;19.056;2022-08-04T18:24:28;3.78;;;1.75;;
50858;SDS011;36826;47.514;19.056;2022-08-04T18:26:55;8.30;;;2.05;;
50858;SDS011;36826;47.514;19.056;2022-08-04T18:29:20;4.03;;;1.88;;
50858;SDS011;36826;47.514;19.056;2022-08-04T18:31:46;5.53;;;1.95;;
50858;SDS011;36826;47.514;19.056;2022-08-04T18:34:11;6.90;;;2.08;;
50858;SDS011;36826;47.514;19.056;2022-08-04T18:36:36;2.95;;;1.88;;
50858;SDS011;36826;47.514;19.056;2022-08-04T18:39:03;3.40;;;2.10;;
50858;SDS011;36826;47.514;19.056;2022-08-04T18:43:56;3.80;;;2.20;;
50858;SDS011;36826;47.514;19.056;2022-08-04T18:46:23;9.52;;;4.40;;
50858;SDS011;36826;47.514;19.056;2022-08-04T18:48:48;4.38;;;1.98;;
50858;SDS011;36826;47.514;19.056;2022-08-04T18:51:14;3.35;;;2.13;;
50858;SDS011;36826;47.514;19.056;2022-08-04T18:53:42;4.88;;;2.15;;
50858;SDS011;36826;47.514;19.056;2022-08-04T18:56:08;5.32;;;2.88;;
50858;SDS011;36826;47.514;19.056;2022-08-04T18:58:34;6.25;;;3.60;;
50858;SDS011;36826;47.514;19.056;2022-08-04T19:00:59;6.47;;;2.70;;
50858;SDS011;36826;47.514;19.056;2022-08-04T19:03:25;5.32;;;2.72;;
50858;SDS011;36826;47.514;19.056;2022-08-04T19:05:50;6.07;;;3.00;;
50858;SDS011;36826;47.514;19.056;2022-08-04T19:08:17;6.47;;;3.03;;
50858;SDS011;36826;47.514;19.056;2022-08-04T19:10:43;5.53;;;3.33;;
50858;SDS011;36826;47.514;19.056;2022-08-04T19:13:09;5.70;;;3.42;;
50858;SDS011;36826;47.514;19.056;2022-08-04T19:15:34;7.72;;;3.58;;
50858;SDS011;36826;47.514;19.056;2022-08-04T19:18:00;6.57;;;3.33;;
50858;SDS011;36826;47.514;19.056;2022-08-04T19:20:26;4.60;;;2.47;;
50858;SDS011;36826;47.514;19.056;2022-08-04T19:22:52;11.18;;;4.38;;
50858;SDS011;36826;47.514;19.056;2022-08-04T19:25:19;14.27;;;4.95;;
50858;SDS011;36826;47.514;19.056;2022-08-04T19:27:47;12.93;;;4.10;;
50858;SDS011;36826;47.514;19.056;2022-08-04T19:30:12;14.70;;;3.47;;
50858;SDS011;36826;47.514;19.056;2022-08-04T19:32:38;6.18;;;2.53;;
50858;SDS011;36826;47.514;19.056;2022-08-04T19:35:04;6.65;;;2.90;;
50858;SDS011;36826;47.514;19.056;2022-08-04T19:37:29;6.40;;;2.85;;
50858;SDS011;36826;47.514;19.056;2022-08-04T19:39:56;4.10;;;2.50;;
50858;SDS011;36826;47.514;19.056;2022-08-04T19:42:21;3.80;;;2.20;;
50858;SDS011;36826;47.514;19.056;2022-08-04T19:44:47;5.65;;;2.35;;
50858;SDS011;36826;47.514;19.056;2022-08-04T19:47:12;3.38;;;1.83;;
50858;SDS011;36826;47.514;19.056;2022-08-04T19:49:38;5.22;;;2.30;;
50858;SDS011;36826;47.514;19.056;2022-08-04T19:52:03;5.53;;;2.55;;
50858;SDS011;36826;47.514;19.056;2022-08-04T19:54:31;7.78;;;2.83;;
50858;SDS011;36826;47.514;19.056;2022-08-04T19:56:56;5.60;;;2.42;;
50858;SDS011;36826;47.514;19.056;2022-08-04T19:59:22;5.82;;;2.40;;
50858;SDS011;36826;47.514;19.056;2022-08-04T20:01:48;5.70;;;2.72;;
50858;SDS011;36826;47.514;19.056;2022-08-04T20:04:13;4.88;;;2.67;;
50858;SDS011;36826;47.514;19.056;2022-08-04T20:06:39;4.72;;;2.60;;
50858;SDS011;36826;47.514;19.056;2022-08-04T20:09:04;4.80;;;2.60;;
50858;SDS011;36826;47.514;19.056;2022-08-04T20:11:30;4.32;;;2.05;;
50858;SDS011;36826;47.514;19.056;2022-08-04T20:13:55;3.58;;;2.20;;
50858;SDS011;36826;47.514;19.056;2022-08-04T20:16:22;5.40;;;2.42;;